sensor_id;sensor_type;location;lat;lon;timestamp;temperature;humidity
18218;DHT22;9234;49.344;11.120;2023-05-10T00:01:51;16.00;95.70
18218;DHT22;9234;49.344;11.120;2023-05-10T00:04:19;15.90;95.80
18218;DHT22;9234;49.344;11.120;2023-05-10T00:06:48;15.90;95.90
18218;DHT22;9234;49.344;11.120;2023-05-10T00:09:16;15.90;96.00
18218;DHT22;9234;49.344;11.120;2023-05-10T00:11:45;15.90;96.10
18218;DHT22;9234;49.344;11.120;2023-05-10T00:14:13;15.80;96.30
18218;DHT22;9234;49.344;11.120;2023-05-10T00:16:42;15.80;96.60
18218;DHT22;9234;49.344;11.120;2023-05-10T00:19:10;15.80;96.90
18218;DHT22;9234;49.344;11.120;2023-05-10T00:21:38;15.80;97.20
18218;DHT22;9234;49.344;11.120;2023-05-10T00:24:06;15.70;97.50
18218;DHT22;9234;49.344;11.120;2023-05-10T00:26:35;15.70;98.00
18218;DHT22;9234;49.344;11.120;2023-05-10T00:29:04;15.70;98.40
18218;DHT22;9234;49.344;11.120;2023-05-10T00:31:32;15.60;98.90
18218;DHT22;9234;49.344;11.120;2023-05-10T00:34:01;15.60;99.30
18218;DHT22;9234;49.344;11.120;2023-05-10T00:36:29;15.60;99.60
18218;DHT22;9234;49.344;11.120;2023-05-10T00:38:57;15.60;99.90
18218;DHT22;9234;49.344;11.120;2023-05-10T00:41:26;15.50;99.90
18218;DHT22;9234;49.344;11.120;2023-05-10T00:43:54;15.50;99.90
18218;DHT22;9234;49.344;11.120;2023-05-10T00:46:24;15.50;99.90
18218;DHT22;9234;49.344;11.120;2023-05-10T00:48:53;15.50;99.90
18218;DHT22;9234;49.344;11.120;2023-05-10T00:51:22;15.50;99.90
18218;DHT22;9234;49.344;11.120;2023-05-10T00:53:51;15.40;99.90
18218;DHT22;9234;49.344;11.120;2023-05-10T00:56:19;15.40;99.90
18218;DHT22;9234;49.344;11.120;2023-05-10T00:58:49;15.40;99.90
18218;DHT22;9234;49.344;11.120;2023-05-10T01:01:18;15.40;99.90
18218;DHT22;9234;49.344;11.120;2023-05-10T01:03:48;15.30;99.90
18218;DHT22;9234;49.344;11.120;2023-05-10T01:06:17;15.30;99.90
18218;DHT22;9234;49.344;11.120;2023-05-10T01:08:46;15.30;99.90
18218;DHT22;9234;49.344;11.120;2023-05-10T01:11:15;15.30;99.90
18218;DHT22;9234;49.344;11.120;2023-05-10T01:13:50;15.30;99.90
18218;DHT22;9234;49.344;11.120;2023-05-10T01:16:23;15.20;99.90
18218;DHT22;9234;49.344;11.120;2023-05-10T01:18:55;15.20;99.90
18218;DHT22;9234;49.344;11.120;2023-05-10T01:21:31;15.20;99.90
18218;DHT22;9234;49.344;11.120;2023-05-10T01:24:25;15.10;99.90
18218;DHT22;9234;49.344;11.120;2023-05-10T01:27:47;15.10;99.90
18218;DHT22;9234;49.344;11.120;2023-05-10T01:34:00;15.00;99.90
18218;DHT22;9234;49.344;11.120;2023-05-10T01:36:40;15.00;99.90
18218;DHT22;9234;49.344;11.120;2023-05-10T01:39:17;15.00;99.90
18218;DHT22;9234;49.344;11.120;2023-05-10T01:41:55;14.90;99.90
18218;DHT22;9234;49.344;11.120;2023-05-10T01:44:33;14.90;99.90
18218;DHT22;9234;49.344;11.120;2023-05-10T01:47:10;14.90;99.90
18218;DHT22;9234;49.344;11.120;2023-05-10T01:49:45;14.90;99.90
18218;DHT22;9234;49.344;11.120;2023-05-10T01:52:18;14.90;99.90
18218;DHT22;9234;49.344;11.120;2023-05-10T01:54:52;14.90;99.90
18218;DHT22;9234;49.344;11.120;2023-05-10T01:57:26;14.90;99.90
18218;DHT22;9234;49.344;11.120;2023-05-10T01:59:59;14.90;99.90
18218;DHT22;9234;49.344;11.120;2023-05-10T02:02:42;14.90;99.90
18218;DHT22;9234;49.344;11.120;2023-05-10T02:05:16;15.00;99.90
18218;DHT22;9234;49.344;11.120;2023-05-10T02:07:45;15.00;99.90
18218;DHT22;9234;49.344;11.120;2023-05-10T02:10:15;14.90;99.90
18218;DHT22;9234;49.344;11.120;2023-05-10T02:12:47;15.00;99.90
18218;DHT22;9234;49.344;11.120;2023-05-10T02:15:22;15.00;99.90
18218;DHT22;9234;49.344;11.120;2023-05-10T02:17:52;14.90;99.90
18218;DHT22;9234;49.344;11.120;2023-05-10T02:20:24;14.90;99.90
18218;DHT22;9234;49.344;11.120;2023-05-10T02:22:55;14.90;99.90
18218;DHT22;9234;49.344;11.120;2023-05-10T02:25:25;14.90;99.90
18218;DHT22;9234;49.344;11.120;2023-05-10T02:27:57;14.90;99.90
18218;DHT22;9234;49.344;11.120;2023-05-10T02:30:31;14.90;99.90
18218;DHT22;9234;49.344;11.120;2023-05-10T02:33:00;14.80;99.90
18218;DHT22;9234;49.344;11.120;2023-05-10T02:35:32;14.80;99.90
18218;DHT22;9234;49.344;11.120;2023-05-10T02:38:02;14.80;99.90
18218;DHT22;9234;49.344;11.120;2023-05-10T02:40:32;14.80;99.90
18218;DHT22;9234;49.344;11.120;2023-05-10T02:43:02;14.80;99.90
18218;DHT22;9234;49.344;11.120;2023-05-10T02:45:32;14.80;99.90
18218;DHT22;9234;49.344;11.120;2023-05-10T02:48:03;14.80;99.90
18218;DHT22;9234;49.344;11.120;2023-05-10T02:50:34;14.80;99.90
18218;DHT22;9234;49.344;11.120;2023-05-10T02:53:10;14.80;99.90
18218;DHT22;9234;49.344;11.120;2023-05-10T02:55:45;14.80;99.90
18218;DHT22;9234;49.344;11.120;2023-05-10T02:58:18;14.90;99.90
18218;DHT22;9234;49.344;11.120;2023-05-10T03:00:47;14.90;99.90
18218;DHT22;9234;49.344;11.120;2023-05-10T03:03:15;14.90;99.90
18218;DHT22;9234;49.344;11.120;2023-05-10T03:05:45;14.90;99.90
18218;DHT22;9234;49.344;11.120;2023-05-10T03:08:13;14.90;99.90
18218;DHT22;9234;49.344;11.120;2023-05-10T03:11:00;15.00;99.90
18218;DHT22;9234;49.344;11.120;2023-05-10T03:13:48;15.00;99.90
18218;DHT22;9234;49.344;11.120;2023-05-10T03:16:38;15.00;99.90
18218;DHT22;9234;49.344;11.120;2023-05-10T03:19:15;15.00;99.90
18218;DHT22;9234;49.344;11.120;2023-05-10T03:21:50;14.90;99.90
18218;DHT22;9234;49.344;11.120;2023-05-10T03:24:23;14.90;99.90
18218;DHT22;9234;49.344;11.120;2023-05-10T03:26:59;14.80;99.90
18218;DHT22;9234;49.344;11.120;2023-05-10T03:29:30;14.80;99.90
18218;DHT22;9234;49.344;11.120;2023-05-10T03:31:59;14.80;99.90
18218;DHT22;9234;49.344;11.120;2023-05-10T03:34:30;14.80;99.90
18218;DHT22;9234;49.344;11.120;2023-05-10T03:37:00;14.80;99.90
18218;DHT22;9234;49.344;11.120;2023-05-10T03:39:30;14.80;99.90
18218;DHT22;9234;49.344;11.120;2023-05-10T03:42:00;14.80;99.90
18218;DHT22;9234;49.344;11.120;2023-05-10T03:44:29;14.80;99.90
18218;DHT22;9234;49.344;11.120;2023-05-10T03:46:58;14.80;99.90
18218;DHT22;9234;49.344;11.120;2023-05-10T03:49:26;14.80;99.90
18218;DHT22;9234;49.344;11.120;2023-05-10T03:51:54;14.70;99.90
18218;DHT22;9234;49.344;11.120;2023-05-10T03:54:24;14.70;99.90
18218;DHT22;9234;49.344;11.120;2023-05-10T03:56:52;14.70;99.90
18218;DHT22;9234;49.344;11.120;2023-05-10T03:59:21;14.70;99.90
18218;DHT22;9234;49.344;11.120;2023-05-10T04:01:51;14.70;99.90
18218;DHT22;9234;49.344;11.120;2023-05-10T04:04:19;14.70;99.90
18218;DHT22;9234;49.344;11.120;2023-05-10T04:06:49;14.60;99.90
18218;DHT22;9234;49.344;11.120;2023-05-10T04:09:18;14.70;99.90
18218;DHT22;9234;49.344;11.120;2023-05-10T04:11:48;14.60;99.90
18218;DHT22;9234;49.344;11.120;2023-05-10T04:14:16;14.60;99.90
18218;DHT22;9234;49.344;11.120;2023-05-10T04:16:44;14.60;99.90
18218;DHT22;9234;49.344;11.120;2023-05-10T04:19:13;14.60;99.90
18218;DHT22;9234;49.344;11.120;2023-05-10T04:21:41;14.60;99.90
18218;DHT22;9234;49.344;11.120;2023-05-10T04:24:09;14.60;99.90
18218;DHT22;9234;49.344;11.120;2023-05-10T04:26:39;14.60;99.90
18218;DHT22;9234;49.344;11.120;2023-05-10T04:29:08;14.60;99.90
18218;DHT22;9234;49.344;11.120;2023-05-10T04:31:36;14.60;99.90
18218;DHT22;9234;49.344;11.120;2023-05-10T04:34:05;14.50;99.90
18218;DHT22;9234;49.344;11.120;2023-05-10T04:36:33;14.50;99.90
18218;DHT22;9234;49.344;11.120;2023-05-10T04:39:02;14.50;99.90
18218;DHT22;9234;49.344;11.120;2023-05-10T04:41:31;14.50;99.90
18218;DHT22;9234;49.344;11.120;2023-05-10T04:43:59;14.50;99.90
18218;DHT22;9234;49.344;11.120;2023-05-10T04:46:28;14.50;99.90
18218;DHT22;9234;49.344;11.120;2023-05-10T04:48:57;14.50;99.90
18218;DHT22;9234;49.344;11.120;2023-05-10T04:51:25;14.50;99.90
18218;DHT22;9234;49.344;11.120;2023-05-10T04:53:53;14.50;99.90
18218;DHT22;9234;49.344;11.120;2023-05-10T04:56:32;14.50;99.90
18218;DHT22;9234;49.344;11.120;2023-05-10T04:59:00;14.50;99.90
18218;DHT22;9234;49.344;11.120;2023-05-10T05:01:30;14.50;99.90
18218;DHT22;9234;49.344;11.120;2023-05-10T05:03:58;14.50;99.90
18218;DHT22;9234;49.344;11.120;2023-05-10T05:06:27;14.50;99.90
18218;DHT22;9234;49.344;11.120;2023-05-10T05:08:55;14.50;99.90
18218;DHT22;9234;49.344;11.120;2023-05-10T05:11:23;14.50;99.90
18218;DHT22;9234;49.344;11.120;2023-05-10T05:13:52;14.50;99.90
18218;DHT22;9234;49.344;11.120;2023-05-10T05:16:20;14.40;99.90
18218;DHT22;9234;49.344;11.120;2023-05-10T05:18:49;14.40;99.90
18218;DHT22;9234;49.344;11.120;2023-05-10T05:21:18;14.40;99.90
18218;DHT22;9234;49.344;11.120;2023-05-10T05:23:47;14.40;99.90
18218;DHT22;9234;49.344;11.120;2023-05-10T05:26:16;14.30;99.90
18218;DHT22;9234;49.344;11.120;2023-05-10T05:28:44;14.40;99.90
18218;DHT22;9234;49.344;11.120;2023-05-10T05:31:12;14.30;99.90
18218;DHT22;9234;49.344;11.120;2023-05-10T05:33:40;14.40;99.90
18218;DHT22;9234;49.344;11.120;2023-05-10T05:36:10;14.30;99.90
18218;DHT22;9234;49.344;11.120;2023-05-10T05:38:38;14.40;99.90
18218;DHT22;9234;49.344;11.120;2023-05-10T05:41:06;14.40;99.90
18218;DHT22;9234;49.344;11.120;2023-05-10T05:43:34;14.40;99.90
18218;DHT22;9234;49.344;11.120;2023-05-10T05:46:04;14.40;99.90
18218;DHT22;9234;49.344;11.120;2023-05-10T05:48:33;14.50;99.90
18218;DHT22;9234;49.344;11.120;2023-05-10T05:51:01;14.50;99.90
18218;DHT22;9234;49.344;11.120;2023-05-10T05:53:34;14.50;99.90
18218;DHT22;9234;49.344;11.120;2023-05-10T05:56:02;14.60;99.90
18218;DHT22;9234;49.344;11.120;2023-05-10T05:58:31;14.60;99.90
18218;DHT22;9234;49.344;11.120;2023-05-10T06:00:59;14.60;99.90
18218;DHT22;9234;49.344;11.120;2023-05-10T06:03:27;14.70;99.90
18218;DHT22;9234;49.344;11.120;2023-05-10T06:05:55;14.70;99.90
18218;DHT22;9234;49.344;11.120;2023-05-10T06:08:24;14.70;99.90
18218;DHT22;9234;49.344;11.120;2023-05-10T06:10:53;14.70;99.90
18218;DHT22;9234;49.344;11.120;2023-05-10T06:13:21;14.80;99.90
18218;DHT22;9234;49.344;11.120;2023-05-10T06:15:50;14.80;99.90
18218;DHT22;9234;49.344;11.120;2023-05-10T06:18:18;14.80;99.90
18218;DHT22;9234;49.344;11.120;2023-05-10T06:20:46;14.80;99.90
18218;DHT22;9234;49.344;11.120;2023-05-10T06:23:14;14.90;99.90
18218;DHT22;9234;49.344;11.120;2023-05-10T06:25:42;14.90;99.90
18218;DHT22;9234;49.344;11.120;2023-05-10T06:28:12;14.90;99.90
18218;DHT22;9234;49.344;11.120;2023-05-10T06:30:40;15.00;99.90
18218;DHT22;9234;49.344;11.120;2023-05-10T06:33:08;15.00;99.90
18218;DHT22;9234;49.344;11.120;2023-05-10T06:35:36;15.00;99.90
18218;DHT22;9234;49.344;11.120;2023-05-10T06:38:05;15.10;99.90
18218;DHT22;9234;49.344;11.120;2023-05-10T06:40:33;15.20;99.90
18218;DHT22;9234;49.344;11.120;2023-05-10T06:43:02;15.30;99.90
18218;DHT22;9234;49.344;11.120;2023-05-10T06:45:32;15.40;99.90
18218;DHT22;9234;49.344;11.120;2023-05-10T06:48:00;15.40;99.90
18218;DHT22;9234;49.344;11.120;2023-05-10T06:50:28;15.40;99.90
18218;DHT22;9234;49.344;11.120;2023-05-10T06:52:56;15.40;99.90
18218;DHT22;9234;49.344;11.120;2023-05-10T06:55:24;15.40;99.90
18218;DHT22;9234;49.344;11.120;2023-05-10T06:57:53;15.40;99.90
18218;DHT22;9234;49.344;11.120;2023-05-10T07:00:21;15.40;99.90
18218;DHT22;9234;49.344;11.120;2023-05-10T07:02:51;15.50;99.90
18218;DHT22;9234;49.344;11.120;2023-05-10T07:05:19;15.50;99.90
18218;DHT22;9234;49.344;11.120;2023-05-10T07:07:48;15.60;99.90
18218;DHT22;9234;49.344;11.120;2023-05-10T07:10:16;15.60;99.90
18218;DHT22;9234;49.344;11.120;2023-05-10T07:12:44;15.70;99.90
18218;DHT22;9234;49.344;11.120;2023-05-10T07:15:13;15.70;99.90
18218;DHT22;9234;49.344;11.120;2023-05-10T07:17:43;15.70;99.90
18218;DHT22;9234;49.344;11.120;2023-05-10T07:20:13;15.70;99.90
18218;DHT22;9234;49.344;11.120;2023-05-10T07:22:42;15.70;99.90
18218;DHT22;9234;49.344;11.120;2023-05-10T07:25:10;15.80;99.90
18218;DHT22;9234;49.344;11.120;2023-05-10T07:27:38;15.80;99.90
18218;DHT22;9234;49.344;11.120;2023-05-10T07:30:08;15.80;99.90
18218;DHT22;9234;49.344;11.120;2023-05-10T07:32:36;15.80;99.90
18218;DHT22;9234;49.344;11.120;2023-05-10T07:35:06;15.90;99.90
18218;DHT22;9234;49.344;11.120;2023-05-10T07:37:36;15.90;99.90
18218;DHT22;9234;49.344;11.120;2023-05-10T07:40:06;16.00;99.90
18218;DHT22;9234;49.344;11.120;2023-05-10T07:42:35;16.00;99.90
18218;DHT22;9234;49.344;11.120;2023-05-10T07:45:04;16.00;99.90
18218;DHT22;9234;49.344;11.120;2023-05-10T07:47:33;16.00;99.90
18218;DHT22;9234;49.344;11.120;2023-05-10T07:50:01;15.90;99.90
18218;DHT22;9234;49.344;11.120;2023-05-10T07:52:29;16.00;99.90
18218;DHT22;9234;49.344;11.120;2023-05-10T07:54:59;16.00;99.90
18218;DHT22;9234;49.344;11.120;2023-05-10T07:57:27;15.90;99.90
18218;DHT22;9234;49.344;11.120;2023-05-10T07:59:55;16.00;99.90
18218;DHT22;9234;49.344;11.120;2023-05-10T08:02:23;16.00;99.90
18218;DHT22;9234;49.344;11.120;2023-05-10T08:04:52;16.00;99.90
18218;DHT22;9234;49.344;11.120;2023-05-10T08:07:20;16.00;99.90
18218;DHT22;9234;49.344;11.120;2023-05-10T08:09:48;16.10;99.90
18218;DHT22;9234;49.344;11.120;2023-05-10T08:12:17;16.10;99.90
18218;DHT22;9234;49.344;11.120;2023-05-10T08:14:45;16.10;99.90
18218;DHT22;9234;49.344;11.120;2023-05-10T08:17:14;16.10;99.90
18218;DHT22;9234;49.344;11.120;2023-05-10T08:19:44;16.10;99.90
18218;DHT22;9234;49.344;11.120;2023-05-10T08:22:12;16.10;99.90
18218;DHT22;9234;49.344;11.120;2023-05-10T08:24:40;16.10;99.90
18218;DHT22;9234;49.344;11.120;2023-05-10T08:27:09;16.30;99.90
18218;DHT22;9234;49.344;11.120;2023-05-10T08:29:38;16.50;99.90
18218;DHT22;9234;49.344;11.120;2023-05-10T08:32:16;16.60;99.90
18218;DHT22;9234;49.344;11.120;2023-05-10T08:34:44;16.80;99.90
18218;DHT22;9234;49.344;11.120;2023-05-10T08:37:12;17.00;99.90
18218;DHT22;9234;49.344;11.120;2023-05-10T08:39:40;17.10;99.90
18218;DHT22;9234;49.344;11.120;2023-05-10T08:42:09;17.20;99.90
18218;DHT22;9234;49.344;11.120;2023-05-10T08:44:39;17.20;99.90
18218;DHT22;9234;49.344;11.120;2023-05-10T08:47:09;17.30;99.90
18218;DHT22;9234;49.344;11.120;2023-05-10T08:49:39;17.20;99.90
18218;DHT22;9234;49.344;11.120;2023-05-10T08:52:09;17.20;99.90
18218;DHT22;9234;49.344;11.120;2023-05-10T08:54:41;17.10;99.90
18218;DHT22;9234;49.344;11.120;2023-05-10T08:57:10;17.10;99.90
18218;DHT22;9234;49.344;11.120;2023-05-10T08:59:40;17.00;99.90
18218;DHT22;9234;49.344;11.120;2023-05-10T09:02:10;17.00;99.90
18218;DHT22;9234;49.344;11.120;2023-05-10T09:04:44;16.90;99.90
18218;DHT22;9234;49.344;11.120;2023-05-10T09:07:12;16.80;99.90
18218;DHT22;9234;49.344;11.120;2023-05-10T09:09:40;16.90;99.90
18218;DHT22;9234;49.344;11.120;2023-05-10T09:12:09;16.90;99.90
18218;DHT22;9234;49.344;11.120;2023-05-10T09:14:40;17.00;99.90
18218;DHT22;9234;49.344;11.120;2023-05-10T09:17:09;17.20;99.90
18218;DHT22;9234;49.344;11.120;2023-05-10T09:19:38;17.30;99.90
18218;DHT22;9234;49.344;11.120;2023-05-10T09:22:06;17.40;99.90
18218;DHT22;9234;49.344;11.120;2023-05-10T09:24:34;17.50;99.90
18218;DHT22;9234;49.344;11.120;2023-05-10T09:27:03;17.60;99.90
18218;DHT22;9234;49.344;11.120;2023-05-10T09:29:41;17.60;99.90
18218;DHT22;9234;49.344;11.120;2023-05-10T09:32:12;17.60;99.90
18218;DHT22;9234;49.344;11.120;2023-05-10T09:34:42;17.70;99.90
18218;DHT22;9234;49.344;11.120;2023-05-10T09:37:11;17.70;99.90
18218;DHT22;9234;49.344;11.120;2023-05-10T09:39:40;17.90;99.90
18218;DHT22;9234;49.344;11.120;2023-05-10T09:42:09;18.10;99.90
18218;DHT22;9234;49.344;11.120;2023-05-10T09:44:37;18.50;99.90
18218;DHT22;9234;49.344;11.120;2023-05-10T09:47:17;18.70;99.90
18218;DHT22;9234;49.344;11.120;2023-05-10T09:49:49;18.80;99.90
18218;DHT22;9234;49.344;11.120;2023-05-10T09:52:17;18.70;99.90
18218;DHT22;9234;49.344;11.120;2023-05-10T09:54:52;18.60;99.90
18218;DHT22;9234;49.344;11.120;2023-05-10T09:57:22;18.50;99.90
18218;DHT22;9234;49.344;11.120;2023-05-10T09:59:52;18.40;99.90
18218;DHT22;9234;49.344;11.120;2023-05-10T10:02:28;18.50;99.90
18218;DHT22;9234;49.344;11.120;2023-05-10T10:04:56;18.50;99.90
18218;DHT22;9234;49.344;11.120;2023-05-10T10:07:26;18.60;99.90
18218;DHT22;9234;49.344;11.120;2023-05-10T10:09:55;18.80;99.90
18218;DHT22;9234;49.344;11.120;2023-05-10T10:12:23;19.00;99.90
18218;DHT22;9234;49.344;11.120;2023-05-10T10:14:54;19.10;99.40
18218;DHT22;9234;49.344;11.120;2023-05-10T10:17:25;18.90;99.90
18218;DHT22;9234;49.344;11.120;2023-05-10T10:19:57;18.80;99.90
18218;DHT22;9234;49.344;11.120;2023-05-10T10:22:26;18.70;99.90
18218;DHT22;9234;49.344;11.120;2023-05-10T10:24:54;18.50;99.90
18218;DHT22;9234;49.344;11.120;2023-05-10T10:27:26;18.30;99.90
18218;DHT22;9234;49.344;11.120;2023-05-10T10:30:13;18.10;99.90
18218;DHT22;9234;49.344;11.120;2023-05-10T10:33:06;18.00;99.90
18218;DHT22;9234;49.344;11.120;2023-05-10T10:35:54;17.80;99.90
18218;DHT22;9234;49.344;11.120;2023-05-10T10:38:25;17.70;99.90
18218;DHT22;9234;49.344;11.120;2023-05-10T10:41:09;17.70;99.90
18218;DHT22;9234;49.344;11.120;2023-05-10T10:43:38;17.60;99.90
18218;DHT22;9234;49.344;11.120;2023-05-10T10:46:12;17.60;99.90
18218;DHT22;9234;49.344;11.120;2023-05-10T10:48:43;17.70;99.90
18218;DHT22;9234;49.344;11.120;2023-05-10T10:51:15;17.80;99.90
18218;DHT22;9234;49.344;11.120;2023-05-10T10:53:43;18.10;99.90
18218;DHT22;9234;49.344;11.120;2023-05-10T10:56:12;18.30;99.90
18218;DHT22;9234;49.344;11.120;2023-05-10T10:58:49;18.60;99.90
18218;DHT22;9234;49.344;11.120;2023-05-10T11:01:19;18.90;99.80
18218;DHT22;9234;49.344;11.120;2023-05-10T11:04:16;18.90;98.90
18218;DHT22;9234;49.344;11.120;2023-05-10T11:06:45;18.80;99.30
18218;DHT22;9234;49.344;11.120;2023-05-10T11:09:14;18.70;99.30
18218;DHT22;9234;49.344;11.120;2023-05-10T11:11:49;18.50;99.10
18218;DHT22;9234;49.344;11.120;2023-05-10T11:14:22;18.30;98.70
18218;DHT22;9234;49.344;11.120;2023-05-10T11:16:51;18.20;99.00
18218;DHT22;9234;49.344;11.120;2023-05-10T11:19:20;18.00;99.40
18218;DHT22;9234;49.344;11.120;2023-05-10T11:21:50;18.00;99.80
18218;DHT22;9234;49.344;11.120;2023-05-10T11:24:22;17.90;99.60
18218;DHT22;9234;49.344;11.120;2023-05-10T11:26:54;17.80;99.80
18218;DHT22;9234;49.344;11.120;2023-05-10T11:29:23;17.80;99.90
18218;DHT22;9234;49.344;11.120;2023-05-10T11:31:57;17.70;99.90
18218;DHT22;9234;49.344;11.120;2023-05-10T11:34:27;17.60;99.90
18218;DHT22;9234;49.344;11.120;2023-05-10T11:36:57;17.60;99.90
18218;DHT22;9234;49.344;11.120;2023-05-10T11:39:26;17.60;99.90
18218;DHT22;9234;49.344;11.120;2023-05-10T11:41:56;17.80;99.90
18218;DHT22;9234;49.344;11.120;2023-05-10T11:44:29;17.90;99.90
18218;DHT22;9234;49.344;11.120;2023-05-10T11:47:00;17.90;99.90
18218;DHT22;9234;49.344;11.120;2023-05-10T11:49:28;18.00;99.90
18218;DHT22;9234;49.344;11.120;2023-05-10T11:52:04;18.00;99.90
18218;DHT22;9234;49.344;11.120;2023-05-10T11:54:33;18.10;99.90
18218;DHT22;9234;49.344;11.120;2023-05-10T11:57:03;18.20;99.90
18218;DHT22;9234;49.344;11.120;2023-05-10T11:59:31;18.30;99.90
18218;DHT22;9234;49.344;11.120;2023-05-10T12:02:01;18.20;99.90
18218;DHT22;9234;49.344;11.120;2023-05-10T12:04:30;18.20;99.80
18218;DHT22;9234;49.344;11.120;2023-05-10T12:06:59;18.20;99.70
18218;DHT22;9234;49.344;11.120;2023-05-10T12:09:27;18.10;99.90
18218;DHT22;9234;49.344;11.120;2023-05-10T12:12:09;18.10;99.70
18218;DHT22;9234;49.344;11.120;2023-05-10T12:14:37;18.00;99.20
18218;DHT22;9234;49.344;11.120;2023-05-10T12:17:11;17.90;99.40
18218;DHT22;9234;49.344;11.120;2023-05-10T12:19:40;17.90;99.80
18218;DHT22;9234;49.344;11.120;2023-05-10T12:22:10;17.80;99.90
18218;DHT22;9234;49.344;11.120;2023-05-10T12:24:38;17.80;99.90
18218;DHT22;9234;49.344;11.120;2023-05-10T12:27:08;17.80;99.90
18218;DHT22;9234;49.344;11.120;2023-05-10T12:29:41;17.80;99.80
18218;DHT22;9234;49.344;11.120;2023-05-10T12:32:12;17.90;99.60
18218;DHT22;9234;49.344;11.120;2023-05-10T12:34:41;17.90;99.40
18218;DHT22;9234;49.344;11.120;2023-05-10T12:37:09;17.90;97.90
18218;DHT22;9234;49.344;11.120;2023-05-10T12:39:39;17.90;97.50
18218;DHT22;9234;49.344;11.120;2023-05-10T12:42:09;17.80;97.50
18218;DHT22;9234;49.344;11.120;2023-05-10T12:44:38;17.80;97.50
18218;DHT22;9234;49.344;11.120;2023-05-10T12:47:07;17.80;97.40
18218;DHT22;9234;49.344;11.120;2023-05-10T12:49:37;17.80;97.90
18218;DHT22;9234;49.344;11.120;2023-05-10T12:52:05;17.80;99.10
18218;DHT22;9234;49.344;11.120;2023-05-10T12:54:34;17.80;99.90
18218;DHT22;9234;49.344;11.120;2023-05-10T12:57:02;17.90;99.90
18218;DHT22;9234;49.344;11.120;2023-05-10T12:59:30;17.90;99.90
18218;DHT22;9234;49.344;11.120;2023-05-10T13:02:00;18.00;99.60
18218;DHT22;9234;49.344;11.120;2023-05-10T13:04:29;18.00;99.10
18218;DHT22;9234;49.344;11.120;2023-05-10T13:06:58;18.00;98.70
18218;DHT22;9234;49.344;11.120;2023-05-10T13:09:27;18.10;98.80
18218;DHT22;9234;49.344;11.120;2023-05-10T13:11:56;18.20;98.20
18218;DHT22;9234;49.344;11.120;2023-05-10T13:14:24;18.30;97.80
18218;DHT22;9234;49.344;11.120;2023-05-10T13:16:53;18.30;97.50
18218;DHT22;9234;49.344;11.120;2023-05-10T13:19:21;18.20;97.10
18218;DHT22;9234;49.344;11.120;2023-05-10T13:21:49;18.00;97.00
18218;DHT22;9234;49.344;11.120;2023-05-10T13:24:19;18.00;97.50
18218;DHT22;9234;49.344;11.120;2023-05-10T13:26:47;17.90;97.80
18218;DHT22;9234;49.344;11.120;2023-05-10T13:29:16;18.00;98.30
18218;DHT22;9234;49.344;11.120;2023-05-10T13:31:45;18.00;98.50
18218;DHT22;9234;49.344;11.120;2023-05-10T13:34:14;18.00;98.70
18218;DHT22;9234;49.344;11.120;2023-05-10T13:36:42;18.10;98.80
18218;DHT22;9234;49.344;11.120;2023-05-10T13:39:10;18.20;98.80
18218;DHT22;9234;49.344;11.120;2023-05-10T13:41:40;18.10;98.30
18218;DHT22;9234;49.344;11.120;2023-05-10T13:44:09;18.10;98.80
18218;DHT22;9234;49.344;11.120;2023-05-10T13:46:41;18.10;98.80
18218;DHT22;9234;49.344;11.120;2023-05-10T13:49:10;18.10;99.00
18218;DHT22;9234;49.344;11.120;2023-05-10T13:51:38;18.20;99.10
18218;DHT22;9234;49.344;11.120;2023-05-10T13:54:06;18.30;99.30
18218;DHT22;9234;49.344;11.120;2023-05-10T13:56:36;18.40;99.40
18218;DHT22;9234;49.344;11.120;2023-05-10T13:59:05;18.60;99.50
18218;DHT22;9234;49.344;11.120;2023-05-10T14:01:34;18.70;99.00
18218;DHT22;9234;49.344;11.120;2023-05-10T14:04:05;18.80;98.70
18218;DHT22;9234;49.344;11.120;2023-05-10T14:06:37;18.80;98.60
18218;DHT22;9234;49.344;11.120;2023-05-10T14:09:05;18.90;98.60
18218;DHT22;9234;49.344;11.120;2023-05-10T14:11:34;18.80;98.60
18218;DHT22;9234;49.344;11.120;2023-05-10T14:14:02;18.80;98.20
18218;DHT22;9234;49.344;11.120;2023-05-10T14:16:32;18.60;97.50
18218;DHT22;9234;49.344;11.120;2023-05-10T14:19:00;18.50;97.80
18218;DHT22;9234;49.344;11.120;2023-05-10T14:21:31;18.50;98.00
18218;DHT22;9234;49.344;11.120;2023-05-10T14:24:00;18.60;98.00
18218;DHT22;9234;49.344;11.120;2023-05-10T14:26:29;18.60;96.10
18218;DHT22;9234;49.344;11.120;2023-05-10T14:28:58;18.70;95.30
18218;DHT22;9234;49.344;11.120;2023-05-10T14:31:26;18.80;95.50
18218;DHT22;9234;49.344;11.120;2023-05-10T14:33:58;18.80;95.30
18218;DHT22;9234;49.344;11.120;2023-05-10T14:36:26;18.90;94.90
18218;DHT22;9234;49.344;11.120;2023-05-10T14:38:55;19.00;95.00
18218;DHT22;9234;49.344;11.120;2023-05-10T14:41:23;19.10;95.40
18218;DHT22;9234;49.344;11.120;2023-05-10T14:43:53;19.20;95.70
18218;DHT22;9234;49.344;11.120;2023-05-10T14:46:21;19.30;95.80
18218;DHT22;9234;49.344;11.120;2023-05-10T14:48:50;19.30;95.80
18218;DHT22;9234;49.344;11.120;2023-05-10T14:51:19;19.30;95.60
18218;DHT22;9234;49.344;11.120;2023-05-10T14:53:48;19.40;95.70
18218;DHT22;9234;49.344;11.120;2023-05-10T14:56:17;19.50;95.90
18218;DHT22;9234;49.344;11.120;2023-05-10T14:58:51;19.60;96.20
18218;DHT22;9234;49.344;11.120;2023-05-10T15:01:20;19.70;95.90
18218;DHT22;9234;49.344;11.120;2023-05-10T15:03:49;19.80;95.80
18218;DHT22;9234;49.344;11.120;2023-05-10T15:06:23;20.00;95.50
18218;DHT22;9234;49.344;11.120;2023-05-10T15:08:52;20.20;95.60
18218;DHT22;9234;49.344;11.120;2023-05-10T15:11:20;20.30;95.10
18218;DHT22;9234;49.344;11.120;2023-05-10T15:13:49;20.40;94.80
18218;DHT22;9234;49.344;11.120;2023-05-10T15:16:17;20.40;94.40
18218;DHT22;9234;49.344;11.120;2023-05-10T15:18:45;20.40;94.90
18218;DHT22;9234;49.344;11.120;2023-05-10T15:21:14;20.40;94.10
18218;DHT22;9234;49.344;11.120;2023-05-10T15:23:43;20.40;93.70
18218;DHT22;9234;49.344;11.120;2023-05-10T15:26:11;20.30;93.70
18218;DHT22;9234;49.344;11.120;2023-05-10T15:28:40;20.30;94.00
18218;DHT22;9234;49.344;11.120;2023-05-10T15:31:08;20.20;94.20
18218;DHT22;9234;49.344;11.120;2023-05-10T15:33:37;20.10;94.70
18218;DHT22;9234;49.344;11.120;2023-05-10T15:36:06;19.80;95.30
18218;DHT22;9234;49.344;11.120;2023-05-10T15:38:34;19.60;95.90
18218;DHT22;9234;49.344;11.120;2023-05-10T15:41:05;19.50;96.20
18218;DHT22;9234;49.344;11.120;2023-05-10T15:43:33;19.40;96.10
18218;DHT22;9234;49.344;11.120;2023-05-10T15:46:01;19.30;96.10
18218;DHT22;9234;49.344;11.120;2023-05-10T15:48:32;19.10;95.10
18218;DHT22;9234;49.344;11.120;2023-05-10T15:51:00;18.90;95.50
18218;DHT22;9234;49.344;11.120;2023-05-10T15:53:28;18.90;95.70